createdAt,value
2019-04-29T00:02:07.759Z,6.00
2019-04-29T00:04:36.253Z,6.43
2019-04-29T00:07:05.314Z,7.03
2019-04-29T00:09:33.575Z,7.37
2019-04-29T00:12:02.208Z,7.63
2019-04-29T00:14:30.696Z,6.33
2019-04-29T00:17:15.220Z,6.23
2019-04-29T00:20:02.704Z,6.70
2019-04-29T00:22:30.834Z,6.33
2019-04-29T00:24:59.581Z,4.10
2019-04-29T00:27:27.718Z,6.87
2019-04-29T00:29:56.778Z,7.63
2019-04-29T00:32:25.000Z,5.77
2019-04-29T00:34:53.241Z,4.80
2019-04-29T00:37:40.148Z,4.80
2019-04-29T00:40:24.944Z,4.07
2019-04-29T00:43:04.810Z,5.23
2019-04-29T00:45:33.583Z,5.00
2019-04-29T00:48:02.418Z,4.80
2019-04-29T00:50:30.951Z,5.20
2019-04-29T00:52:59.588Z,5.73
2019-04-29T00:55:30.732Z,5.40
2019-04-29T00:57:59.522Z,5.63
2019-04-29T01:00:34.022Z,6.30
2019-04-29T01:03:02.511Z,6.97
2019-04-29T01:05:30.668Z,5.57
2019-04-29T01:07:59.229Z,4.73
2019-04-29T01:10:27.899Z,4.63
2019-04-29T01:12:56.808Z,6.53
2019-04-29T01:15:25.450Z,5.80
2019-04-29T01:17:54.050Z,5.07
2019-04-29T01:20:22.197Z,5.20
2019-04-29T01:22:50.759Z,3.90
2019-04-29T01:25:18.980Z,3.77
2019-04-29T01:28:09.684Z,4.60
2019-04-29T01:31:00.330Z,3.50
2019-04-29T01:33:28.756Z,4.33
2019-04-29T01:36:19.777Z,4.27
2019-04-29T01:38:50.216Z,3.60
2019-04-29T01:41:20.976Z,4.17
2019-04-29T01:43:58.985Z,4.83
2019-04-29T01:46:27.689Z,5.23
2019-04-29T01:48:56.243Z,4.00
2019-04-29T01:51:24.758Z,3.30
2019-04-29T01:53:53.181Z,3.37
2019-04-29T01:56:21.306Z,3.63
2019-04-29T01:58:49.926Z,4.37
2019-04-29T02:01:18.192Z,4.23
2019-04-29T02:03:46.353Z,4.73
2019-04-29T02:06:14.574Z,4.07
2019-04-29T02:08:43.427Z,5.00
2019-04-29T02:11:11.557Z,4.23
2019-04-29T02:13:40.096Z,6.50
2019-04-29T02:16:08.261Z,3.83
2019-04-29T02:18:36.391Z,3.93
2019-04-29T02:21:04.751Z,3.87
2019-04-29T02:23:44.366Z,4.17
2019-04-29T02:26:12.900Z,5.63
2019-04-29T02:28:41.026Z,4.63
2019-04-29T02:31:27.542Z,4.23
2019-04-29T02:33:56.045Z,4.07
2019-04-29T02:36:24.300Z,5.20
2019-04-29T02:39:10.970Z,5.73
2019-04-29T02:42:01.634Z,4.47
2019-04-29T02:44:31.567Z,6.53
2019-04-29T02:47:00.092Z,5.20
2019-04-29T02:49:29.156Z,6.43
2019-04-29T02:51:57.462Z,8.47
2019-04-29T02:54:27.551Z,7.50
2019-04-29T02:57:27.513Z,5.47
2019-04-29T03:00:01.292Z,6.40
2019-04-29T03:02:55.170Z,7.47
2019-04-29T03:05:26.397Z,7.90
2019-04-29T03:07:55.068Z,12.20
2019-04-29T03:10:23.493Z,10.63
2019-04-29T03:12:52.275Z,9.67
2019-04-29T03:15:33.975Z,8.97
2019-04-29T03:18:02.619Z,12.60
2019-04-29T03:20:40.946Z,9.93
2019-04-29T03:23:11.334Z,11.60
2019-04-29T03:25:39.784Z,12.87
2019-04-29T03:28:08.409Z,12.83
2019-04-29T03:30:37.896Z,12.77
2019-04-29T03:33:06.079Z,13.53
2019-04-29T03:35:34.491Z,14.47
2019-04-29T03:38:03.112Z,12.20
2019-04-29T03:40:32.072Z,11.97
2019-04-29T03:43:00.267Z,13.47
2019-04-29T03:45:28.545Z,17.03
2019-04-29T03:47:56.788Z,14.53
2019-04-29T03:50:24.972Z,15.90
2019-04-29T03:52:53.947Z,14.23
2019-04-29T03:55:38.173Z,14.47
2019-04-29T03:57:53.207Z,15.97
2019-04-29T04:00:21.390Z,15.20
2019-04-29T04:03:12.951Z,18.37
2019-04-29T04:05:50.463Z,17.40
2019-04-29T04:08:40.691Z,15.17
2019-04-29T04:11:09.343Z,13.93
2019-04-29T04:13:38.525Z,13.93
2019-04-29T04:16:09.832Z,16.60
2019-04-29T04:18:38.244Z,16.77
2019-04-29T04:21:07.060Z,16.80
2019-04-29T04:23:35.615Z,12.63
2019-04-29T04:26:03.951Z,14.53
2019-04-29T04:28:32.169Z,14.43
2019-04-29T04:31:00.628Z,14.40
2019-04-29T04:33:28.942Z,12.73
2019-04-29T04:35:57.473Z,15.60
2019-04-29T04:38:25.648Z,12.77
2019-04-29T04:41:00.483Z,14.33
2019-04-29T04:43:28.673Z,18.53
2019-04-29T04:45:57.152Z,15.70
2019-04-29T04:48:25.600Z,15.30
2019-04-29T04:50:53.928Z,17.93
2019-04-29T04:53:22.621Z,14.43
2019-04-29T04:55:53.698Z,16.30
2019-04-29T04:58:22.451Z,17.77
2019-04-29T05:00:51.001Z,14.67
2019-04-29T05:03:19.345Z,16.60
2019-04-29T05:05:47.557Z,16.00
2019-04-29T05:08:15.944Z,19.70
2019-04-29T05:10:44.487Z,18.30
2019-04-29T05:13:26.978Z,18.60
2019-04-29T05:15:43.570Z,18.03
2019-04-29T05:18:11.813Z,20.17
2019-04-29T05:20:39.933Z,21.70
2019-04-29T05:23:08.680Z,21.20
2019-04-29T05:25:36.954Z,20.80
2019-04-29T05:28:05.484Z,19.20
2019-04-29T05:30:34.033Z,20.93
2019-04-29T05:33:02.319Z,23.20
2019-04-29T05:36:03.726Z,21.47
2019-04-29T05:38:42.146Z,22.97
2019-04-29T05:41:10.790Z,21.23
2019-04-29T05:44:08.131Z,25.87
2019-04-29T05:46:56.207Z,21.97
2019-04-29T05:49:30.200Z,23.73
2019-04-29T05:52:24.283Z,22.37
2019-04-29T05:54:52.721Z,20.23
2019-04-29T05:57:25.150Z,22.47
2019-04-29T05:59:51.147Z,20.83
2019-04-29T06:02:19.358Z,20.40
2019-04-29T06:04:48.221Z,19.87
2019-04-29T06:07:21.641Z,21.57
2019-04-29T06:09:47.947Z,24.53
2019-04-29T06:12:16.379Z,24.43
2019-04-29T06:14:44.766Z,19.20
2019-04-29T06:17:13.711Z,20.80
2019-04-29T06:19:41.936Z,17.70
2019-04-29T06:22:10.182Z,18.43
2019-04-29T06:24:41.106Z,19.80
2019-04-29T06:27:08.661Z,19.17
2019-04-29T06:29:37.312Z,18.00
2019-04-29T06:32:05.565Z,18.67
2019-04-29T06:34:35.457Z,20.20
2019-04-29T06:37:04.871Z,18.33
2019-04-29T06:39:33.143Z,20.80
2019-04-29T06:42:01.359Z,23.17
2019-04-29T06:44:30.012Z,17.73
2019-04-29T06:46:58.870Z,18.13
2019-04-29T06:49:27.164Z,19.27
2019-04-29T06:51:55.336Z,19.53
2019-04-29T06:54:23.571Z,21.27
2019-04-29T06:56:51.745Z,18.90
2019-04-29T06:59:19.995Z,20.43
2019-04-29T07:01:48.168Z,19.53
2019-04-29T07:04:17.154Z,20.57
2019-04-29T07:06:56.730Z,18.73
2019-04-29T07:09:16.476Z,21.87
2019-04-29T07:11:45.541Z,17.53
2019-04-29T07:14:14.072Z,20.30
2019-04-29T07:16:42.849Z,16.83
2019-04-29T07:19:12.116Z,18.27
2019-04-29T07:21:41.847Z,19.30
2019-04-29T07:24:11.336Z,21.93
2019-04-29T07:26:39.713Z,20.20
2019-04-29T07:29:07.933Z,21.63
2019-04-29T07:31:36.560Z,25.43
2019-04-29T07:34:04.765Z,27.20
2019-04-29T07:36:33.259Z,25.90
2019-04-29T07:39:01.549Z,29.90
2019-04-29T07:41:30.368Z,27.15
2019-04-29T07:43:58.564Z,27.10
2019-04-29T07:46:36.396Z,30.27
2019-04-29T07:49:05.593Z,27.77
2019-04-29T07:51:34.700Z,24.20
2019-04-29T07:54:03.393Z,27.50
2019-04-29T07:56:32.382Z,30.20
2019-04-29T07:59:03.015Z,28.13
2019-04-29T08:01:31.881Z,29.37
2019-04-29T08:04:00.051Z,30.67
2019-04-29T08:06:29.362Z,30.63
2019-04-29T08:09:07.047Z,32.80
2019-04-29T08:11:30.701Z,34.60
2019-04-29T08:14:00.769Z,35.00
2019-04-29T08:16:29.051Z,33.80
2019-04-29T08:18:57.451Z,40.83
2019-04-29T08:21:25.594Z,38.47
2019-04-29T08:23:53.705Z,41.67
2019-04-29T08:26:21.976Z,41.63
2019-04-29T08:28:52.856Z,41.70
2019-04-29T08:31:21.057Z,39.90
2019-04-29T08:33:50.343Z,44.33
2019-04-29T08:36:18.812Z,44.00
2019-04-29T08:38:48.767Z,43.30
2019-04-29T08:41:21.043Z,43.00
2019-04-29T08:43:57.797Z,41.70
2019-04-29T08:46:37.556Z,42.33
2019-04-29T08:49:07.743Z,32.57
2019-04-29T08:51:36.071Z,27.77
2019-04-29T08:54:04.223Z,28.00
2019-04-29T08:56:32.392Z,24.80
2019-04-29T08:59:00.812Z,24.13
2019-04-29T09:01:33.534Z,21.80
2019-04-29T09:03:59.709Z,18.47
2019-04-29T09:06:32.696Z,17.30
2019-04-29T09:08:59.686Z,13.83
2019-04-29T09:11:28.491Z,17.03
2019-04-29T09:13:56.814Z,18.80
2019-04-29T09:16:25.208Z,17.80
2019-04-29T09:18:53.689Z,18.43
2019-04-29T09:21:21.836Z,14.87
2019-04-29T09:23:49.964Z,14.87
2019-04-29T09:26:24.792Z,13.47
2019-04-29T09:28:53.287Z,13.93
2019-04-29T09:31:21.624Z,13.53
2019-04-29T09:33:52.282Z,12.67
2019-04-29T09:36:19.991Z,16.37
2019-04-29T09:38:48.500Z,15.37
2019-04-29T09:41:30.623Z,15.00
2019-04-29T09:44:28.893Z,12.90
2019-04-29T09:46:57.022Z,9.90
2019-04-29T09:49:25.438Z,10.33
2019-04-29T09:51:54.121Z,12.03
2019-04-29T09:54:22.238Z,12.07
2019-04-29T09:56:50.516Z,9.43
2019-04-29T09:59:25.496Z,10.40
2019-04-29T10:02:19.998Z,9.13
2019-04-29T10:05:06.658Z,8.80
2019-04-29T10:07:34.933Z,10.60
2019-04-29T10:10:06.955Z,11.73
2019-04-29T10:12:34.778Z,16.00
2019-04-29T10:15:04.703Z,15.70
2019-04-29T10:17:58.097Z,13.53
2019-04-29T10:20:31.386Z,15.10
2019-04-29T10:22:59.612Z,15.50
2019-04-29T10:25:27.985Z,12.67
2019-04-29T10:27:56.346Z,15.10
2019-04-29T10:30:26.859Z,12.33
2019-04-29T10:32:56.817Z,17.83
2019-04-29T10:35:25.052Z,16.47
2019-04-29T10:37:53.560Z,18.23
2019-04-29T10:40:39.576Z,14.40
2019-04-29T10:43:17.141Z,16.07
2019-04-29T10:46:02.824Z,16.00
2019-04-29T10:48:36.264Z,15.67
2019-04-29T10:51:06.128Z,19.73
2019-04-29T10:53:34.425Z,15.33
2019-04-29T10:56:05.674Z,18.23
2019-04-29T10:58:35.718Z,12.83
2019-04-29T11:02:20.461Z,12.20
2019-04-29T11:04:50.528Z,13.17
2019-04-29T11:07:38.618Z,13.30
2019-04-29T11:10:25.159Z,12.90
2019-04-29T11:12:54.296Z,13.73
2019-04-29T11:15:29.387Z,15.07
2019-04-29T11:17:59.394Z,15.97
2019-04-29T11:20:26.912Z,14.00
2019-04-29T11:23:17.851Z,10.83
2019-04-29T11:26:09.567Z,12.03
2019-04-29T11:28:37.820Z,12.90
2019-04-29T11:31:09.785Z,14.00
2019-04-29T11:33:47.620Z,11.13
2019-04-29T11:36:16.583Z,8.53
2019-04-29T11:38:45.041Z,10.43
2019-04-29T11:41:19.853Z,12.83
2019-04-29T11:43:46.730Z,11.47
2019-04-29T11:46:15.731Z,11.50
2019-04-29T11:48:44.840Z,10.53
2019-04-29T11:51:34.197Z,12.63
2019-04-29T11:54:01.528Z,11.97
2019-04-29T11:56:30.573Z,11.30
2019-04-29T11:59:12.321Z,10.40
2019-04-29T12:01:59.741Z,10.53
2019-04-29T12:04:33.734Z,8.37
2019-04-29T12:07:02.900Z,8.13
2019-04-29T12:09:32.234Z,9.23
2019-04-29T12:12:00.684Z,9.47
2019-04-29T12:14:37.928Z,9.33
2019-04-29T12:17:19.782Z,8.17
2019-04-29T12:19:49.496Z,9.73
2019-04-29T12:22:28.171Z,8.80
2019-04-29T12:24:48.190Z,12.70
2019-04-29T12:27:19.745Z,12.03
2019-04-29T12:29:48.855Z,13.90
2019-04-29T12:32:32.072Z,16.80
2019-04-29T12:35:25.913Z,12.60
2019-04-29T12:38:39.662Z,11.90
2019-04-29T12:41:29.972Z,16.13
2019-04-29T12:44:13.136Z,14.83
2019-04-29T12:46:45.064Z,15.73
2019-04-29T12:49:13.826Z,14.03
2019-04-29T12:51:42.614Z,13.10
2019-04-29T12:54:10.835Z,14.20
2019-04-29T12:56:43.322Z,14.90
2019-04-29T12:59:11.814Z,15.17
2019-04-29T13:02:05.730Z,15.33
2019-04-29T13:04:59.917Z,14.03
2019-04-29T13:07:33.949Z,11.27
2019-04-29T13:13:00.032Z,18.80
2019-04-29T13:15:54.479Z,15.10
2019-04-29T13:18:33.660Z,12.60
2019-04-29T13:21:09.839Z,17.27
2019-04-29T13:23:42.480Z,16.03
2019-04-29T13:26:02.793Z,14.47
2019-04-29T13:28:34.498Z,16.47
2019-04-29T13:31:01.513Z,15.20
2019-04-29T13:33:29.933Z,16.33
2019-04-29T13:36:00.410Z,17.50
2019-04-29T13:38:28.666Z,15.90
2019-04-29T13:41:13.019Z,19.77
2019-04-29T13:43:27.482Z,16.20
2019-04-29T13:46:18.666Z,15.90
2019-04-29T13:49:13.966Z,18.57
2019-04-29T13:51:39.777Z,17.80
2019-04-29T13:54:08.554Z,18.30
2019-04-29T13:56:54.585Z,21.77
2019-04-29T13:59:10.606Z,24.20
2019-04-29T14:02:06.800Z,20.30
2019-04-29T14:04:39.387Z,23.33
2019-04-29T14:07:09.901Z,24.57
2019-04-29T14:09:39.312Z,26.90
2019-04-29T14:12:46.607Z,28.27
2019-04-29T14:14:38.834Z,22.30
2019-04-29T14:17:25.265Z,31.33
2019-04-29T14:19:42.307Z,34.70
2019-04-29T14:22:21.416Z,36.50
2019-04-29T14:24:40.043Z,43.13
2019-04-29T14:27:08.272Z,37.93
2019-04-29T14:29:36.620Z,42.53
2019-04-29T14:32:05.740Z,44.63
2019-04-29T14:34:42.669Z,47.58
2019-04-29T14:37:19.994Z,46.93
2019-04-29T14:39:41.373Z,49.03
2019-04-29T14:42:18.980Z,44.60
2019-04-29T14:44:59.436Z,47.70
2019-04-29T14:47:45.133Z,53.37
2019-04-29T14:50:15.715Z,48.27
2019-04-29T14:52:44.660Z,44.50
2019-04-29T14:55:15.189Z,49.97
2019-04-29T14:57:43.615Z,45.33
2019-04-29T15:00:33.067Z,46.50
2019-04-29T15:03:02.815Z,47.53
2019-04-29T15:05:33.080Z,51.73
2019-04-29T15:08:02.172Z,47.50
2019-04-29T15:10:32.967Z,45.97
2019-04-29T15:13:20.556Z,48.30
2019-04-29T15:16:14.141Z,52.40
2019-04-29T15:18:50.145Z,46.47
2019-04-29T15:21:34.450Z,47.53
2019-04-29T15:24:02.930Z,43.03
2019-04-29T15:26:31.471Z,43.83
2019-04-29T15:28:59.773Z,46.10
2019-04-29T15:31:28.516Z,45.87
2019-04-29T15:33:57.012Z,46.13
2019-04-29T15:36:25.218Z,51.30
2019-04-29T15:39:08.850Z,43.70
2019-04-29T15:41:29.442Z,44.80
2019-04-29T15:44:06.328Z,46.87
2019-04-29T15:46:24.648Z,44.07
2019-04-29T15:48:52.831Z,38.33
2019-04-29T15:51:20.985Z,41.23
2019-04-29T15:53:49.172Z,44.03
2019-04-29T15:56:28.322Z,48.13
2019-04-29T15:58:48.069Z,45.17
2019-04-29T16:01:18.243Z,45.27
2019-04-29T16:03:49.912Z,42.73
2019-04-29T16:06:40.044Z,42.13
2019-04-29T16:09:30.402Z,40.97
2019-04-29T16:12:05.070Z,36.93
2019-04-29T16:14:31.242Z,42.77
2019-04-29T16:17:00.282Z,36.63
2019-04-29T16:19:28.557Z,43.47
2019-04-29T16:21:57.013Z,46.93
2019-04-29T16:24:27.030Z,45.73
2019-04-29T16:27:01.053Z,42.23
2019-04-29T16:29:25.923Z,38.77
2019-04-29T16:31:55.037Z,42.70
2019-04-29T16:34:24.394Z,48.90
2019-04-29T16:36:52.774Z,48.00
2019-04-29T16:39:21.289Z,46.73
2019-04-29T16:42:00.735Z,57.80
2019-04-29T16:44:35.767Z,44.03
2019-04-29T16:46:58.859Z,46.13
2019-04-29T16:49:27.111Z,42.37
2019-04-29T16:51:55.977Z,40.77
2019-04-29T16:54:28.273Z,41.80
2019-04-29T16:56:54.476Z,45.87
2019-04-29T16:59:22.664Z,40.53
2019-04-29T17:01:51.457Z,36.80
2019-04-29T17:04:19.795Z,40.33
2019-04-29T17:07:11.405Z,45.20
2019-04-29T17:09:52.961Z,43.13
2019-04-29T17:12:21.549Z,46.27
2019-04-29T17:15:04.052Z,43.27
2019-04-29T17:17:28.797Z,48.17
2019-04-29T17:19:53.344Z,46.83
2019-04-29T17:22:26.049Z,44.00
2019-04-29T17:24:52.613Z,48.37
2019-04-29T17:27:42.203Z,50.80
2019-04-29T17:30:29.106Z,49.40
2019-04-29T17:33:31.071Z,48.47
2019-04-29T17:35:59.844Z,43.00
2019-04-29T17:38:28.123Z,45.73
2019-04-29T17:40:56.329Z,52.27
2019-04-29T17:43:54.294Z,41.60
2019-04-29T17:46:44.685Z,47.93
2019-04-29T17:49:30.646Z,48.13
2019-04-29T17:52:02.928Z,49.03
2019-04-29T17:54:34.818Z,50.30
2019-04-29T17:57:31.123Z,51.33
2019-04-29T18:00:12.728Z,48.30
2019-04-29T18:03:02.490Z,49.73
2019-04-29T18:05:55.707Z,48.50
2019-04-29T18:08:44.762Z,54.97
2019-04-29T18:11:15.017Z,49.63
2019-04-29T18:13:45.719Z,58.90
2019-04-29T18:16:19.141Z,53.53
2019-04-29T18:18:58.511Z,61.13
2019-04-29T18:21:47.313Z,55.43
2019-04-29T18:24:34.121Z,58.87
2019-04-29T18:27:03.061Z,57.63
2019-04-29T18:29:34.826Z,60.93
2019-04-29T18:32:05.238Z,54.13
2019-04-29T18:34:33.699Z,49.27
2019-04-29T18:37:02.196Z,63.33
2019-04-29T18:39:31.779Z,58.97
2019-04-29T18:42:03.203Z,62.00
2019-04-29T18:44:31.047Z,64.53
2019-04-29T18:47:00.155Z,59.30
2019-04-29T18:49:28.711Z,61.47
2019-04-29T18:51:57.946Z,63.40
2019-04-29T18:54:27.581Z,63.03
2019-04-29T18:56:56.538Z,62.53
2019-04-29T18:59:30.696Z,61.60
2019-04-29T19:01:55.057Z,63.10
2019-04-29T19:04:56.466Z,58.10
2019-04-29T19:07:26.571Z,63.80
2019-04-29T19:09:55.497Z,61.53
2019-04-29T19:12:23.865Z,65.40
2019-04-29T19:14:52.001Z,62.10
2019-04-29T19:17:21.837Z,67.67
2019-04-29T19:19:50.488Z,63.57
2019-04-29T19:22:18.745Z,64.60
2019-04-29T19:24:48.200Z,65.40
2019-04-29T19:27:16.719Z,59.93
2019-04-29T19:29:45.536Z,61.70
2019-04-29T19:32:14.226Z,58.37
2019-04-29T19:34:45.826Z,62.67
2019-04-29T19:37:15.400Z,55.87
2019-04-29T19:39:44.942Z,62.23
2019-04-29T19:42:13.281Z,58.07
2019-04-29T19:44:41.845Z,55.97
2019-04-29T19:47:10.769Z,62.57
2019-04-29T19:49:44.698Z,60.10
2019-04-29T19:52:11.045Z,58.37
2019-04-29T19:54:39.483Z,55.57
2019-04-29T19:57:07.711Z,61.10
2019-04-29T19:59:36.855Z,55.07
2019-04-29T20:02:09.995Z,60.30
2019-04-29T20:04:42.216Z,61.20
2019-04-29T20:07:11.681Z,56.00
2019-04-29T20:09:41.867Z,45.23
2019-04-29T20:12:13.073Z,48.13
2019-04-29T20:14:41.576Z,46.90
2019-04-29T20:17:31.165Z,53.30
2019-04-29T20:20:22.466Z,54.40
2019-04-29T20:22:51.425Z,56.70
2019-04-29T20:25:29.183Z,54.80
2019-04-29T20:27:49.992Z,56.07
2019-04-29T20:30:20.796Z,52.60
2019-04-29T20:32:49.629Z,59.93
2019-04-29T20:35:18.575Z,51.03
2019-04-29T20:37:47.965Z,52.30
2019-04-29T20:40:17.624Z,55.13
2019-04-29T20:42:49.020Z,56.13
2019-04-29T20:45:20.186Z,56.07
2019-04-29T20:47:48.565Z,53.87
2019-04-29T20:50:17.249Z,57.20
2019-04-29T20:53:05.817Z,56.40
2019-04-29T20:55:36.609Z,56.23
2019-04-29T20:58:06.425Z,54.60
2019-04-29T21:00:37.436Z,60.40
2019-04-29T21:03:09.299Z,56.50
2019-04-29T21:05:47.578Z,54.80
2019-04-29T21:08:14.279Z,51.30
2019-04-29T21:10:42.417Z,54.73
2019-04-29T21:13:26.391Z,55.10
2019-04-29T21:16:05.136Z,51.87
2019-04-29T21:18:33.123Z,56.73
2019-04-29T21:21:04.475Z,57.07
2019-04-29T21:23:35.467Z,49.47
2019-04-29T21:26:05.305Z,56.13
2019-04-29T21:28:38.199Z,58.90
2019-04-29T21:31:02.223Z,50.73
2019-04-29T21:33:31.311Z,53.03
2019-04-29T21:36:22.179Z,49.13
2019-04-29T21:39:09.565Z,53.80
2019-04-29T21:41:50.666Z,54.97
2019-04-29T21:44:23.708Z,54.27
2019-04-29T21:46:50.692Z,54.93
2019-04-29T21:49:18.855Z,55.23
2019-04-29T21:51:49.722Z,51.93
2019-04-29T21:54:17.048Z,55.27
2019-04-29T21:56:47.987Z,57.83
2019-04-29T21:59:15.893Z,51.10
2019-04-29T22:01:44.846Z,55.37
2019-04-29T22:04:13.482Z,51.33
2019-04-29T22:06:41.897Z,51.93
2019-04-29T22:09:12.059Z,51.50
2019-04-29T22:11:43.187Z,55.03
2019-04-29T22:14:14.143Z,56.67
2019-04-29T22:16:40.747Z,52.00
2019-04-29T22:19:09.475Z,51.13
2019-04-29T22:21:37.650Z,47.90
2019-04-29T22:24:06.348Z,53.30
2019-04-29T22:26:35.097Z,53.57
2019-04-29T22:29:03.744Z,59.47
2019-04-29T22:31:34.001Z,55.10
2019-04-29T22:34:02.449Z,55.57
2019-04-29T22:36:30.848Z,55.27
2019-04-29T22:38:59.113Z,57.27
2019-04-29T22:41:37.680Z,54.80
2019-04-29T22:44:07.186Z,58.13
2019-04-29T22:46:35.814Z,58.20
2019-04-29T22:49:05.722Z,56.30
2019-04-29T22:51:35.544Z,63.03
2019-04-29T22:54:04.370Z,61.50
2019-04-29T22:56:32.614Z,62.60
2019-04-29T22:59:00.841Z,62.87
2019-04-29T23:01:29.359Z,60.60
2019-04-29T23:03:57.623Z,66.17
2019-04-29T23:06:25.998Z,62.27
2019-04-29T23:08:56.062Z,64.33
2019-04-29T23:11:24.966Z,58.03
2019-04-29T23:13:55.316Z,60.87
2019-04-29T23:16:23.701Z,67.37
2019-04-29T23:18:51.943Z,65.20
2019-04-29T23:21:44.859Z,61.77
2019-04-29T23:24:32.653Z,59.93
2019-04-29T23:27:01.198Z,63.00
2019-04-29T23:29:29.363Z,59.70
2019-04-29T23:31:59.692Z,62.97
2019-04-29T23:34:29.506Z,66.53
2019-04-29T23:36:57.971Z,60.50
2019-04-29T23:39:26.583Z,62.70
2019-04-29T23:41:55.454Z,67.87
2019-04-29T23:44:23.805Z,71.63
2019-04-29T23:46:51.958Z,69.10
2019-04-29T23:49:20.444Z,73.87
2019-04-29T23:51:48.918Z,76.10
2019-04-29T23:54:17.335Z,80.87
2019-04-29T23:57:06.200Z,78.43
2019-04-29T23:59:37.032Z,76.57
